createdAt,value
2024-02-19T00:00:50.985Z,38.74
2024-02-19T00:03:19.002Z,37.85
2024-02-19T00:05:46.297Z,38.25
2024-02-19T00:08:13.052Z,38.43
2024-02-19T00:10:39.785Z,38.77
2024-02-19T00:13:06.439Z,38.19
2024-02-19T00:15:32.971Z,38.41
2024-02-19T00:18:00.180Z,38.75
2024-02-19T00:20:26.767Z,38.83
2024-02-19T00:22:53.287Z,38.40
2024-02-19T00:25:19.931Z,38.39
2024-02-19T00:27:46.530Z,38.35
2024-02-19T00:30:13.363Z,38.72
2024-02-19T00:32:40.221Z,38.53
2024-02-19T00:35:07.026Z,38.65
2024-02-19T00:37:33.635Z,38.40
2024-02-19T00:40:00.338Z,39.00
2024-02-19T00:42:27.021Z,38.56
2024-02-19T00:44:53.533Z,38.87
2024-02-19T00:47:20.021Z,38.55
2024-02-19T00:49:46.673Z,38.85
2024-02-19T00:52:13.417Z,39.27
2024-02-19T00:54:40.013Z,38.89
2024-02-19T00:57:06.533Z,39.17
2024-02-19T00:59:33.076Z,39.14
2024-02-19T01:01:59.872Z,39.47
2024-02-19T01:04:26.598Z,39.08
2024-02-19T01:06:53.261Z,38.94
2024-02-19T01:09:19.749Z,38.93
2024-02-19T01:11:46.256Z,39.27
2024-02-19T01:14:12.770Z,39.10
2024-02-19T01:16:39.389Z,39.31
2024-02-19T01:19:06.886Z,38.93
2024-02-19T01:21:33.570Z,39.10
2024-02-19T01:24:01.501Z,38.98
2024-02-19T01:26:28.036Z,39.14
2024-02-19T01:28:54.568Z,38.96
2024-02-19T01:31:22.237Z,39.01
2024-02-19T01:33:49.536Z,39.40
2024-02-19T01:36:16.143Z,39.40
2024-02-19T01:38:43.403Z,39.42
2024-02-19T01:41:10.039Z,39.48
2024-02-19T01:43:37.583Z,39.69
2024-02-19T01:46:04.403Z,39.65
2024-02-19T01:48:30.982Z,39.73
2024-02-19T01:50:57.576Z,40.00
2024-02-19T01:53:24.681Z,39.73
2024-02-19T01:55:51.272Z,39.89
2024-02-19T01:58:17.814Z,39.71
2024-02-19T02:00:44.418Z,40.10
2024-02-19T02:03:11.368Z,39.81
2024-02-19T02:05:37.999Z,40.24
2024-02-19T02:08:06.388Z,40.47
2024-02-19T02:10:32.973Z,40.19
2024-02-19T02:12:59.517Z,40.38
2024-02-19T02:15:26.584Z,40.30
2024-02-19T02:17:53.126Z,40.38
2024-02-19T02:20:19.677Z,40.07
2024-02-19T02:22:48.218Z,40.13
2024-02-19T02:25:14.857Z,39.97
2024-02-19T02:27:41.468Z,40.55
2024-02-19T02:30:09.496Z,40.36
2024-02-19T02:32:36.160Z,40.63
2024-02-19T02:35:03.921Z,40.22
2024-02-19T02:37:31.769Z,40.83
2024-02-19T02:39:58.388Z,40.64
2024-02-19T02:42:25.026Z,40.88
2024-02-19T02:44:51.902Z,40.61
2024-02-19T02:47:18.460Z,40.99
2024-02-19T02:49:44.976Z,41.65
2024-02-19T02:52:11.552Z,41.13
2024-02-19T02:54:38.352Z,41.18
2024-02-19T02:57:04.935Z,41.55
2024-02-19T02:59:31.504Z,41.36
2024-02-19T03:01:58.107Z,41.11
2024-02-19T03:04:24.945Z,41.37
2024-02-19T03:06:51.626Z,41.66
2024-02-19T03:09:18.328Z,41.33
2024-02-19T03:11:44.889Z,41.33
2024-02-19T03:14:14.862Z,41.04
2024-02-19T03:16:41.673Z,41.34
2024-02-19T03:19:10.690Z,41.21
2024-02-19T03:21:37.856Z,41.86
2024-02-19T03:24:04.772Z,41.88
2024-02-19T03:26:37.843Z,41.31
2024-02-19T03:29:13.859Z,41.91
2024-02-19T03:31:41.429Z,41.26
2024-02-19T03:34:08.408Z,41.53
2024-02-19T03:36:35.188Z,41.27
2024-02-19T03:39:01.680Z,42.02
2024-02-19T03:41:28.277Z,41.80
2024-02-19T03:43:54.956Z,42.12
2024-02-19T03:46:21.592Z,42.18
2024-02-19T03:48:48.182Z,42.10
2024-02-19T03:51:14.752Z,42.49
2024-02-19T03:53:41.278Z,42.31
2024-02-19T03:56:07.880Z,42.15
2024-02-19T03:58:36.106Z,43.06
2024-02-19T04:01:03.844Z,43.04
2024-02-19T04:03:32.089Z,42.92
2024-02-19T04:05:58.731Z,43.14
2024-02-19T04:08:25.202Z,42.42
2024-02-19T04:10:51.697Z,42.97
2024-02-19T04:13:18.411Z,42.71
2024-02-19T04:15:45.004Z,42.91
2024-02-19T04:18:11.700Z,42.50
2024-02-19T04:20:38.187Z,42.67
2024-02-19T04:23:04.834Z,42.93
2024-02-19T04:25:31.352Z,42.95
2024-02-19T04:27:57.905Z,42.73
2024-02-19T04:30:24.415Z,42.18
2024-02-19T04:32:52.171Z,43.11
2024-02-19T04:35:19.692Z,42.84
2024-02-19T04:37:46.243Z,42.57
2024-02-19T04:40:14.162Z,42.77
2024-02-19T04:42:40.816Z,42.76
2024-02-19T04:45:07.589Z,43.07
2024-02-19T04:47:34.087Z,43.15
2024-02-19T04:50:00.973Z,43.29
2024-02-19T04:52:27.785Z,42.46
2024-02-19T04:54:54.425Z,43.02
2024-02-19T04:57:21.265Z,42.94
2024-02-19T04:59:47.799Z,43.25
2024-02-19T05:02:14.298Z,42.72
2024-02-19T05:04:41.381Z,42.68
2024-02-19T05:07:08.092Z,42.42
2024-02-19T05:09:34.898Z,42.93
2024-02-19T05:12:01.730Z,42.65
2024-02-19T05:14:28.281Z,42.46
2024-02-19T05:16:56.082Z,42.72
2024-02-19T05:19:23.074Z,42.95
2024-02-19T05:21:49.783Z,42.59
2024-02-19T05:24:18.389Z,43.04
2024-02-19T05:26:45.077Z,43.31
2024-02-19T05:29:12.022Z,43.05
2024-02-19T05:31:39.234Z,42.76
2024-02-19T05:34:06.135Z,43.23
2024-02-19T05:36:32.867Z,42.96
2024-02-19T05:38:59.908Z,42.99
2024-02-19T05:41:26.647Z,43.57
2024-02-19T05:43:53.416Z,42.62
2024-02-19T05:46:20.654Z,42.89
2024-02-19T05:48:47.509Z,43.46
2024-02-19T05:51:14.188Z,43.41
2024-02-19T05:53:41.872Z,42.80
2024-02-19T05:56:10.616Z,43.50
2024-02-19T05:58:41.652Z,43.31
2024-02-19T06:01:08.692Z,43.61
2024-02-19T06:03:35.562Z,43.63
2024-02-19T06:06:02.495Z,43.49
2024-02-19T06:08:29.091Z,43.88
2024-02-19T06:10:56.667Z,42.93
2024-02-19T06:13:23.404Z,44.13
2024-02-19T06:15:50.130Z,43.45
2024-02-19T06:18:16.856Z,43.30
2024-02-19T06:20:43.743Z,43.86
2024-02-19T06:23:10.248Z,44.04
2024-02-19T06:25:36.781Z,44.03
2024-02-19T06:28:03.561Z,44.15
2024-02-19T06:30:30.153Z,44.04
2024-02-19T06:32:56.711Z,44.38
2024-02-19T06:35:23.305Z,44.50
2024-02-19T06:37:50.142Z,44.34
2024-02-19T06:40:17.131Z,44.79
2024-02-19T06:42:43.743Z,44.87
2024-02-19T06:45:10.985Z,44.89
2024-02-19T06:47:37.616Z,44.82
2024-02-19T06:50:04.489Z,45.05
2024-02-19T06:52:31.220Z,44.88
2024-02-19T06:54:57.819Z,44.51
2024-02-19T06:57:24.412Z,44.98
2024-02-19T06:59:50.926Z,45.18
2024-02-19T07:02:17.495Z,45.38
2024-02-19T07:04:46.327Z,45.09
2024-02-19T07:07:13.078Z,45.36
2024-02-19T07:09:41.478Z,45.12
2024-02-19T07:12:08.673Z,45.31
2024-02-19T07:14:35.210Z,45.33
2024-02-19T07:17:01.717Z,45.02
2024-02-19T07:19:28.343Z,45.21
2024-02-19T07:21:54.934Z,45.37
2024-02-19T07:24:21.532Z,45.22
2024-02-19T07:26:48.065Z,45.35
2024-02-19T07:29:14.759Z,45.16
2024-02-19T07:31:41.346Z,45.45
2024-02-19T07:34:08.781Z,45.08
2024-02-19T07:36:35.738Z,44.96
2024-02-19T07:39:02.320Z,44.56
2024-02-19T07:41:28.867Z,45.13
2024-02-19T07:43:55.410Z,45.49
2024-02-19T07:46:23.240Z,45.80
2024-02-19T07:48:50.226Z,45.61
2024-02-19T07:51:17.809Z,45.88
2024-02-19T07:53:45.031Z,46.03
2024-02-19T07:56:11.652Z,46.60
2024-02-19T07:58:38.171Z,46.71
2024-02-19T08:01:05.577Z,46.77
2024-02-19T08:03:32.796Z,47.29
2024-02-19T08:05:59.474Z,47.47
2024-02-19T08:08:26.269Z,46.96
2024-02-19T08:10:53.224Z,47.82
2024-02-19T08:13:19.917Z,47.71
2024-02-19T08:15:46.654Z,48.12
2024-02-19T08:18:13.307Z,47.81
2024-02-19T08:20:40.326Z,48.27
2024-02-19T08:23:06.917Z,48.43
2024-02-19T08:25:33.759Z,48.15
2024-02-19T08:28:00.651Z,48.57
2024-02-19T08:30:27.220Z,48.97
2024-02-19T08:32:53.687Z,48.83
2024-02-19T08:35:20.312Z,48.41
2024-02-19T08:37:46.890Z,48.54
2024-02-19T08:40:13.511Z,48.41
2024-02-19T08:42:40.258Z,48.87
2024-02-19T08:45:07.335Z,48.59
2024-02-19T08:47:33.847Z,48.25
2024-02-19T08:50:00.555Z,48.15
2024-02-19T08:52:27.218Z,47.90
2024-02-19T08:54:53.856Z,48.32
2024-02-19T08:57:21.085Z,48.25
2024-02-19T08:59:47.749Z,48.46
2024-02-19T09:02:14.763Z,48.93
2024-02-19T09:04:43.693Z,48.38
2024-02-19T09:07:10.678Z,48.46
2024-02-19T09:09:37.754Z,48.10
2024-02-19T09:12:05.209Z,48.64
2024-02-19T09:14:31.739Z,48.72
2024-02-19T09:16:58.269Z,48.96
2024-02-19T09:19:24.949Z,49.17
2024-02-19T09:21:51.555Z,48.91
2024-02-19T09:24:18.136Z,48.59
2024-02-19T09:26:44.635Z,49.31
2024-02-19T09:29:11.180Z,49.23
2024-02-19T09:31:37.908Z,48.70
2024-02-19T09:34:04.785Z,49.21
2024-02-19T09:36:31.354Z,48.81
2024-02-19T09:38:57.850Z,48.76
2024-02-19T09:41:24.492Z,48.67
2024-02-19T09:43:52.887Z,48.83
2024-02-19T09:46:23.513Z,48.55
2024-02-19T09:48:50.894Z,48.52
2024-02-19T09:51:29.387Z,48.61
2024-02-19T09:54:00.049Z,48.52
2024-02-19T09:56:27.222Z,48.43
2024-02-19T09:58:53.788Z,48.45
2024-02-19T10:01:20.501Z,48.68
2024-02-19T10:03:47.272Z,48.75
2024-02-19T10:06:14.020Z,48.56
2024-02-19T10:08:40.681Z,48.45
2024-02-19T10:11:09.461Z,48.24
2024-02-19T10:13:38.196Z,48.47
2024-02-19T10:16:09.516Z,48.28
2024-02-19T10:18:36.233Z,48.29
2024-02-19T10:21:03.085Z,48.81
2024-02-19T10:23:29.637Z,49.17
2024-02-19T10:25:56.425Z,48.61
2024-02-19T10:28:24.532Z,49.08
2024-02-19T10:30:52.358Z,48.62
2024-02-19T10:33:20.618Z,48.84
2024-02-19T10:35:50.650Z,48.66
2024-02-19T10:38:18.357Z,48.81
2024-02-19T10:40:44.941Z,48.29
2024-02-19T10:43:11.951Z,47.87
2024-02-19T10:45:39.439Z,48.41
2024-02-19T10:48:06.540Z,48.80
2024-02-19T10:50:33.657Z,48.48
2024-02-19T10:53:00.236Z,48.58
2024-02-19T10:55:36.052Z,48.61
2024-02-19T10:58:13.946Z,48.55
2024-02-19T11:00:41.936Z,48.43
2024-02-19T11:03:09.538Z,48.33
2024-02-19T11:05:40.049Z,48.69
2024-02-19T11:08:18.232Z,48.53
2024-02-19T11:10:45.033Z,48.74
2024-02-19T11:13:13.275Z,48.88
2024-02-19T11:15:43.263Z,49.19
2024-02-19T11:18:12.591Z,49.07
2024-02-19T11:20:39.274Z,48.92
2024-02-19T11:23:06.025Z,49.21
2024-02-19T11:25:32.665Z,49.07
2024-02-19T11:27:59.774Z,49.13
2024-02-19T11:30:27.045Z,49.30
2024-02-19T11:33:05.714Z,48.99
2024-02-19T11:35:36.607Z,48.91
2024-02-19T11:38:04.285Z,48.65
2024-02-19T11:40:34.423Z,48.51
2024-02-19T11:43:02.870Z,48.42
2024-02-19T11:45:31.271Z,48.69
2024-02-19T11:47:59.630Z,48.33
2024-02-19T11:50:30.024Z,48.22
2024-02-19T11:52:58.755Z,48.50
2024-02-19T11:55:26.179Z,48.18
2024-02-19T11:57:53.929Z,48.87
2024-02-19T12:00:23.601Z,48.86
2024-02-19T12:02:52.658Z,48.59
2024-02-19T12:05:20.079Z,48.69
2024-02-19T12:07:46.723Z,48.92
2024-02-19T12:10:13.452Z,48.55
2024-02-19T12:12:40.869Z,48.57
2024-02-19T12:15:12.234Z,48.61
2024-02-19T12:17:40.520Z,48.90
2024-02-19T12:20:08.632Z,48.63
2024-02-19T12:22:35.278Z,48.68
2024-02-19T12:25:01.919Z,48.42
2024-02-19T12:27:28.483Z,48.36
2024-02-19T12:29:55.101Z,47.75
2024-02-19T12:32:22.230Z,48.08
2024-02-19T12:34:49.133Z,47.69
2024-02-19T12:37:16.569Z,48.15
2024-02-19T12:39:43.530Z,48.01
2024-02-19T12:42:11.558Z,48.27
2024-02-19T12:44:39.394Z,48.10
2024-02-19T12:47:06.985Z,48.61
2024-02-19T12:49:37.476Z,49.05
2024-02-19T12:52:05.886Z,48.75
2024-02-19T12:54:32.994Z,48.94
2024-02-19T12:57:00.338Z,49.30
2024-02-19T12:59:26.825Z,49.25
2024-02-19T13:01:53.453Z,49.28
2024-02-19T13:04:20.585Z,49.76
2024-02-19T13:06:47.904Z,49.31
2024-02-19T13:09:15.284Z,49.67
2024-02-19T13:11:41.850Z,49.71
2024-02-19T13:14:08.447Z,49.75
2024-02-19T13:16:36.481Z,50.07
2024-02-19T13:19:03.500Z,49.52
2024-02-19T13:21:31.739Z,49.99
2024-02-19T13:23:58.233Z,50.22
2024-02-19T13:26:24.749Z,49.68
2024-02-19T13:28:51.288Z,49.81
2024-02-19T13:31:17.920Z,49.44
2024-02-19T13:33:44.673Z,49.09
2024-02-19T13:36:11.256Z,48.84
2024-02-19T13:38:39.163Z,48.05
2024-02-19T13:41:05.872Z,47.16
2024-02-19T13:43:33.425Z,47.05
2024-02-19T13:46:02.802Z,46.87
2024-02-19T13:48:30.102Z,46.75
2024-02-19T13:50:57.978Z,46.66
2024-02-19T13:53:26.505Z,45.05
2024-02-19T13:55:53.663Z,42.64
2024-02-19T13:58:21.886Z,41.46
2024-02-19T14:00:48.735Z,40.62
2024-02-19T14:03:17.948Z,40.14
2024-02-19T14:05:45.583Z,40.20
2024-02-19T14:08:13.563Z,43.14
2024-02-19T14:10:40.491Z,44.62
2024-02-19T14:13:07.123Z,45.91
2024-02-19T14:15:33.784Z,46.92
2024-02-19T14:18:00.462Z,47.69
2024-02-19T14:20:27.178Z,48.28
2024-02-19T14:22:54.152Z,48.53
2024-02-19T14:25:21.064Z,48.88
2024-02-19T14:27:47.726Z,48.80
2024-02-19T14:30:14.739Z,48.92
2024-02-19T14:32:41.596Z,48.08
2024-02-19T14:35:10.136Z,48.21
2024-02-19T14:37:39.979Z,47.79
2024-02-19T14:40:10.270Z,44.19
2024-02-19T14:42:37.582Z,43.71
2024-02-19T14:45:05.567Z,45.25
2024-02-19T14:47:32.221Z,45.75
2024-02-19T14:49:58.954Z,46.89
2024-02-19T14:52:26.193Z,47.90
2024-02-19T14:54:55.229Z,48.12
2024-02-19T14:57:22.026Z,48.27
2024-02-19T14:59:51.718Z,48.30
2024-02-19T15:02:19.030Z,48.34
2024-02-19T15:04:45.820Z,48.27
2024-02-19T15:07:16.017Z,48.41
2024-02-19T15:09:42.960Z,48.74
2024-02-19T15:12:10.269Z,49.06
2024-02-19T15:14:36.868Z,49.11
2024-02-19T15:17:04.323Z,49.61
2024-02-19T15:19:30.926Z,49.17
2024-02-19T15:21:57.514Z,47.86
2024-02-19T15:24:26.894Z,41.93
2024-02-19T15:26:53.415Z,39.29
2024-02-19T15:29:21.668Z,37.19
2024-02-19T15:31:48.235Z,35.82
2024-02-19T15:34:14.852Z,35.06
2024-02-19T15:36:41.414Z,34.50
2024-02-19T15:39:09.497Z,34.36
2024-02-19T15:41:38.840Z,34.81
2024-02-19T15:44:05.678Z,35.15
2024-02-19T15:46:32.499Z,35.38
2024-02-19T15:49:01.566Z,35.80
2024-02-19T15:51:30.680Z,37.11
2024-02-19T15:53:58.150Z,38.01
2024-02-19T15:56:25.945Z,42.27
2024-02-19T15:58:52.726Z,44.94
2024-02-19T16:01:19.766Z,47.04
2024-02-19T16:03:46.496Z,47.85
2024-02-19T16:06:13.060Z,49.07
2024-02-19T16:08:42.443Z,49.77
2024-02-19T16:11:10.592Z,49.87
2024-02-19T16:13:39.092Z,50.69
2024-02-19T16:16:07.129Z,50.75
2024-02-19T16:18:34.533Z,50.71
2024-02-19T16:21:01.604Z,50.50
2024-02-19T16:23:30.236Z,50.46
2024-02-19T16:25:59.251Z,50.52
2024-02-19T16:28:26.828Z,50.28
2024-02-19T16:30:53.438Z,50.36
2024-02-19T16:33:20.003Z,50.03
2024-02-19T16:35:46.662Z,49.94
2024-02-19T16:38:15.223Z,50.06
2024-02-19T16:40:43.236Z,49.72
2024-02-19T16:43:09.788Z,49.68
2024-02-19T16:45:38.689Z,49.53
2024-02-19T16:48:09.946Z,49.38
2024-02-19T16:50:36.931Z,49.22
2024-02-19T16:53:03.738Z,48.90
2024-02-19T16:55:30.303Z,48.55
2024-02-19T16:57:56.962Z,49.12
2024-02-19T17:00:23.592Z,48.71
2024-02-19T17:02:50.170Z,48.53
2024-02-19T17:05:16.927Z,48.48
2024-02-19T17:07:44.082Z,48.55
2024-02-19T17:10:11.032Z,48.48
2024-02-19T17:12:37.572Z,48.37
2024-02-19T17:15:04.261Z,48.18
2024-02-19T17:17:30.768Z,48.33
2024-02-19T17:19:57.452Z,48.04
2024-02-19T17:22:24.092Z,48.16
2024-02-19T17:24:50.646Z,48.36
2024-02-19T17:27:17.242Z,48.33
2024-02-19T17:29:43.777Z,48.28
2024-02-19T17:32:10.358Z,47.74
2024-02-19T17:34:37.880Z,47.76
2024-02-19T17:37:05.075Z,47.91
2024-02-19T17:39:31.862Z,47.80
2024-02-19T17:41:58.378Z,47.42
2024-02-19T17:44:25.452Z,47.94
2024-02-19T17:46:52.844Z,47.50
2024-02-19T17:49:19.868Z,47.41
2024-02-19T17:51:46.701Z,47.68
2024-02-19T17:54:14.836Z,47.52
2024-02-19T17:56:41.535Z,47.39
2024-02-19T17:59:10.830Z,47.68
2024-02-19T18:01:39.208Z,47.21
2024-02-19T18:04:06.342Z,47.22
2024-02-19T18:06:35.180Z,47.48
2024-02-19T18:09:03.999Z,46.90
2024-02-19T18:11:30.814Z,46.92
2024-02-19T18:13:58.957Z,47.19
2024-02-19T18:16:25.558Z,46.64
2024-02-19T18:18:52.166Z,47.53
2024-02-19T18:21:21.004Z,46.90
2024-02-19T18:23:51.207Z,46.98
2024-02-19T18:26:18.320Z,46.85
2024-02-19T18:28:44.900Z,47.13
2024-02-19T18:31:12.375Z,46.80
2024-02-19T18:33:39.023Z,46.81
2024-02-19T18:36:06.319Z,46.78
2024-02-19T18:38:35.089Z,47.56
2024-02-19T18:41:03.903Z,47.14
2024-02-19T18:43:30.715Z,47.13
2024-02-19T18:46:00.844Z,46.82
2024-02-19T18:48:29.611Z,47.06
2024-02-19T18:50:56.805Z,46.87
2024-02-19T18:53:23.579Z,47.25
2024-02-19T18:56:02.577Z,46.78
2024-02-19T18:58:29.977Z,47.24
2024-02-19T19:00:57.284Z,47.12
2024-02-19T19:03:26.052Z,47.26
2024-02-19T19:05:56.434Z,46.71
2024-02-19T19:08:24.542Z,47.08
2024-02-19T19:10:51.135Z,46.92
2024-02-19T19:13:17.675Z,47.26
2024-02-19T19:15:44.241Z,47.28
2024-02-19T19:18:11.097Z,47.06
2024-02-19T19:20:40.081Z,47.36
2024-02-19T19:23:07.004Z,47.35
2024-02-19T19:25:33.737Z,47.08
2024-02-19T19:28:00.666Z,47.41
2024-02-19T19:30:27.732Z,47.24
2024-02-19T19:32:54.568Z,47.26
2024-02-19T19:35:24.279Z,47.46
2024-02-19T19:37:51.980Z,47.15
2024-02-19T19:40:19.893Z,47.63
2024-02-19T19:42:49.446Z,47.31
2024-02-19T19:45:16.161Z,47.24
2024-02-19T19:47:45.817Z,47.33
2024-02-19T19:50:12.625Z,47.15
2024-02-19T19:52:39.281Z,46.98
2024-02-19T19:55:06.105Z,47.54
2024-02-19T19:57:32.876Z,47.31
2024-02-19T20:00:00.854Z,47.54
2024-02-19T20:02:27.977Z,47.15
2024-02-19T20:04:56.477Z,47.64
2024-02-19T20:07:26.360Z,47.70
2024-02-19T20:09:53.073Z,47.88
2024-02-19T20:12:21.378Z,47.93
2024-02-19T20:14:48.024Z,47.66
2024-02-19T20:17:20.223Z,47.37
2024-02-19T20:19:46.886Z,47.70
2024-02-19T20:22:14.656Z,47.79
2024-02-19T20:24:41.238Z,47.14
2024-02-19T20:27:08.242Z,47.92
2024-02-19T20:29:35.176Z,47.56
2024-02-19T20:32:04.068Z,47.92
2024-02-19T20:34:31.686Z,47.90
2024-02-19T20:36:58.543Z,47.77
2024-02-19T20:39:25.935Z,47.64
2024-02-19T20:41:53.586Z,47.27
2024-02-19T20:44:20.204Z,47.67
2024-02-19T20:46:46.945Z,47.87
2024-02-19T20:49:13.500Z,47.81
2024-02-19T20:51:40.112Z,47.73
2024-02-19T20:54:06.616Z,47.92
2024-02-19T20:56:33.180Z,48.18
2024-02-19T20:58:59.715Z,47.92
2024-02-19T21:01:26.531Z,47.99
2024-02-19T21:03:53.160Z,47.68
2024-02-19T21:06:20.365Z,47.74
2024-02-19T21:08:47.203Z,47.70
2024-02-19T21:11:16.079Z,47.60
2024-02-19T21:13:43.677Z,47.72
2024-02-19T21:16:11.229Z,47.90
2024-02-19T21:18:46.569Z,48.00
2024-02-19T21:21:22.045Z,47.86
2024-02-19T21:23:56.401Z,47.86
2024-02-19T21:26:23.041Z,47.89
2024-02-19T21:28:50.333Z,48.35
2024-02-19T21:31:17.616Z,48.06
2024-02-19T21:33:44.499Z,48.91
2024-02-19T21:36:11.360Z,48.14
2024-02-19T21:38:38.105Z,48.32
2024-02-19T21:41:04.872Z,47.95
2024-02-19T21:43:31.451Z,48.30
2024-02-19T21:46:00.272Z,47.99
2024-02-19T21:48:27.240Z,48.25
2024-02-19T21:50:53.921Z,48.44
2024-02-19T21:53:20.436Z,48.21
2024-02-19T21:55:47.046Z,48.32
2024-02-19T21:58:13.679Z,48.56
2024-02-19T22:00:40.257Z,48.89
2024-02-19T22:03:07.119Z,47.82
2024-02-19T22:05:33.813Z,48.10
2024-02-19T22:08:01.206Z,48.50
2024-02-19T22:10:27.976Z,48.20
2024-02-19T22:12:54.717Z,48.15
2024-02-19T22:15:21.869Z,48.52
2024-02-19T22:17:48.471Z,48.47
2024-02-19T22:20:15.124Z,48.62
2024-02-19T22:22:43.161Z,48.33
2024-02-19T22:25:10.018Z,48.78
2024-02-19T22:27:36.578Z,48.67
2024-02-19T22:30:04.804Z,49.13
2024-02-19T22:32:32.871Z,49.02
2024-02-19T22:35:00.136Z,48.29
2024-02-19T22:37:27.395Z,48.63
2024-02-19T22:39:54.097Z,48.69
2024-02-19T22:42:20.620Z,48.79
2024-02-19T22:44:47.182Z,48.74
2024-02-19T22:47:13.728Z,49.23
2024-02-19T22:49:40.439Z,49.18
2024-02-19T22:52:07.786Z,48.77
2024-02-19T22:54:34.702Z,48.64
2024-02-19T22:57:01.622Z,48.65
2024-02-19T22:59:28.288Z,48.61
2024-02-19T23:01:55.029Z,49.00
2024-02-19T23:04:21.830Z,48.80
2024-02-19T23:06:49.129Z,49.22
2024-02-19T23:09:15.750Z,48.51
2024-02-19T23:11:43.125Z,49.18
2024-02-19T23:14:10.250Z,49.60
2024-02-19T23:16:36.807Z,49.25
2024-02-19T23:19:03.861Z,48.97
2024-02-19T23:21:30.675Z,49.26
2024-02-19T23:23:57.267Z,48.60
2024-02-19T23:26:23.766Z,48.86
2024-02-19T23:28:50.255Z,48.91
2024-02-19T23:31:16.866Z,49.07
2024-02-19T23:33:43.816Z,49.15
2024-02-19T23:36:10.423Z,49.48
2024-02-19T23:38:36.904Z,49.15
2024-02-19T23:41:03.470Z,48.97
2024-02-19T23:43:30.380Z,49.14
2024-02-19T23:45:57.016Z,49.37
2024-02-19T23:48:23.730Z,49.05
2024-02-19T23:50:50.373Z,48.97
2024-02-19T23:53:16.897Z,49.33
2024-02-19T23:55:43.863Z,48.90
2024-02-19T23:58:11.557Z,49.35
